createdAt,value
2023-03-17T00:01:57.403Z,96.00
2023-03-17T00:04:28.582Z,95.60
2023-03-17T00:06:58.051Z,95.60
2023-03-17T00:09:26.464Z,95.90
2023-03-17T00:11:54.868Z,94.90
2023-03-17T00:14:23.212Z,95.30
2023-03-17T00:16:53.888Z,95.70
2023-03-17T00:19:29.957Z,96.60
2023-03-17T00:21:59.147Z,98.00
2023-03-17T00:24:27.590Z,99.80
2023-03-17T00:26:55.956Z,99.40
2023-03-17T00:29:25.541Z,99.70
2023-03-17T00:31:54.668Z,99.40
2023-03-17T00:34:24.553Z,99.90
2023-03-17T00:36:54.498Z,99.00
2023-03-17T00:39:25.485Z,98.80
2023-03-17T00:41:56.100Z,98.30
2023-03-17T00:44:25.612Z,97.90
2023-03-17T00:46:56.629Z,97.90
2023-03-17T00:49:26.402Z,97.80
2023-03-17T00:51:56.528Z,97.70
2023-03-17T00:54:25.189Z,97.40
2023-03-17T00:56:53.770Z,97.20
2023-03-17T00:59:27.564Z,97.10
2023-03-17T01:01:56.603Z,98.00
2023-03-17T01:04:25.665Z,98.60
2023-03-17T01:06:54.549Z,99.10
2023-03-17T01:09:27.142Z,99.20
2023-03-17T01:11:56.228Z,99.70
2023-03-17T01:14:25.977Z,99.70
2023-03-17T01:16:55.330Z,96.30
2023-03-17T01:19:24.424Z,96.80
2023-03-17T01:21:53.018Z,95.50
2023-03-17T01:24:21.438Z,98.70
2023-03-17T01:26:52.152Z,98.60
2023-03-17T01:29:20.474Z,99.00
2023-03-17T01:31:48.853Z,99.30
2023-03-17T01:34:17.250Z,97.40
2023-03-17T01:36:46.621Z,93.20
2023-03-17T01:39:16.232Z,94.20
2023-03-17T01:41:45.783Z,98.40
2023-03-17T01:44:19.015Z,99.00
2023-03-17T01:46:47.690Z,99.00
2023-03-17T01:49:26.156Z,98.70
2023-03-17T01:52:06.250Z,98.80
2023-03-17T01:54:43.187Z,96.80
2023-03-17T01:57:17.352Z,96.40
2023-03-17T01:59:52.052Z,96.70
2023-03-17T02:02:25.876Z,95.10
2023-03-17T02:04:54.520Z,95.90
2023-03-17T02:07:26.829Z,95.70
2023-03-17T02:09:57.158Z,96.90
2023-03-17T02:12:26.865Z,95.70
2023-03-17T02:14:57.593Z,95.50
2023-03-17T02:17:28.842Z,96.30
2023-03-17T02:19:57.837Z,96.10
2023-03-17T02:22:28.166Z,96.90
2023-03-17T02:24:59.528Z,98.90
2023-03-17T02:27:34.039Z,97.40
2023-03-17T02:30:02.500Z,96.00
2023-03-17T02:32:30.968Z,94.50
2023-03-17T02:34:59.560Z,94.80
2023-03-17T02:37:29.371Z,95.10
2023-03-17T02:39:57.882Z,98.30
2023-03-17T02:42:26.276Z,98.90
2023-03-17T02:44:55.055Z,96.20
2023-03-17T02:47:23.433Z,96.70
2023-03-17T02:49:52.338Z,95.70
2023-03-17T02:52:20.688Z,94.50
2023-03-17T02:54:50.476Z,94.50
2023-03-17T02:57:18.903Z,94.40
2023-03-17T02:59:47.254Z,94.60
2023-03-17T03:02:16.942Z,94.70
2023-03-17T03:04:45.787Z,94.90
2023-03-17T03:07:14.127Z,94.10
2023-03-17T03:09:42.606Z,93.10
2023-03-17T03:12:13.986Z,93.00
2023-03-17T03:14:43.364Z,94.20
2023-03-17T03:17:11.941Z,95.00
2023-03-17T03:19:40.872Z,95.30
2023-03-17T03:22:09.697Z,95.60
2023-03-17T03:24:38.260Z,95.00
2023-03-17T03:27:06.997Z,94.10
2023-03-17T03:29:37.369Z,94.30
2023-03-17T03:32:06.129Z,93.30
2023-03-17T03:34:34.445Z,94.20
2023-03-17T03:37:02.902Z,94.60
2023-03-17T03:39:31.281Z,93.10
2023-03-17T03:41:59.692Z,93.70
2023-03-17T03:44:28.125Z,94.40
2023-03-17T03:46:57.895Z,92.80
2023-03-17T03:49:26.320Z,93.60
2023-03-17T03:51:54.778Z,97.40
2023-03-17T03:54:23.126Z,97.80
2023-03-17T03:56:51.583Z,97.70
2023-03-17T03:59:20.035Z,97.60
2023-03-17T04:01:48.336Z,96.80
2023-03-17T04:04:18.125Z,96.80
2023-03-17T04:06:46.493Z,95.60
2023-03-17T04:09:14.845Z,94.60
2023-03-17T04:11:43.168Z,95.20
2023-03-17T04:14:11.504Z,95.30
2023-03-17T04:16:42.219Z,95.30
2023-03-17T04:19:12.441Z,95.00
2023-03-17T04:21:42.347Z,94.80
2023-03-17T04:24:11.019Z,95.00
2023-03-17T04:26:39.382Z,94.80
2023-03-17T04:29:09.025Z,94.60
2023-03-17T04:31:37.792Z,95.60
2023-03-17T04:34:06.278Z,94.90
2023-03-17T04:36:34.913Z,96.00
2023-03-17T04:39:04.778Z,96.20
2023-03-17T04:41:33.246Z,96.90
2023-03-17T04:44:01.563Z,97.40
2023-03-17T04:46:30.071Z,98.70
2023-03-17T04:48:58.750Z,99.30
2023-03-17T04:51:27.394Z,99.80
2023-03-17T04:53:56.117Z,99.80
2023-03-17T04:56:25.848Z,99.50
2023-03-17T04:58:54.347Z,99.90
2023-03-17T05:01:22.859Z,99.90
2023-03-17T05:03:51.735Z,99.90
2023-03-17T05:06:20.162Z,99.90
2023-03-17T05:08:48.546Z,99.90
2023-03-17T05:11:17.160Z,99.60
2023-03-17T05:13:47.222Z,98.90
2023-03-17T05:16:15.719Z,98.00
2023-03-17T05:18:44.904Z,98.40
2023-03-17T05:21:13.252Z,98.40
2023-03-17T05:23:41.997Z,95.30
2023-03-17T05:26:10.411Z,95.10
2023-03-17T05:28:38.810Z,95.20
2023-03-17T05:31:10.906Z,95.60
2023-03-17T05:33:40.507Z,94.90
2023-03-17T05:36:09.335Z,94.20
2023-03-17T05:38:37.949Z,94.20
2023-03-17T05:41:06.635Z,94.20
2023-03-17T05:43:35.185Z,94.10
2023-03-17T05:46:03.957Z,93.00
2023-03-17T05:48:33.778Z,93.10
2023-03-17T05:51:02.251Z,93.10
2023-03-17T05:53:31.308Z,93.00
2023-03-17T05:55:59.723Z,93.70
2023-03-17T05:58:28.035Z,94.70
2023-03-17T06:00:56.413Z,93.50
2023-03-17T06:03:24.850Z,93.90
2023-03-17T06:05:54.600Z,93.80
2023-03-17T06:08:22.982Z,94.00
2023-03-17T06:10:51.574Z,92.90
2023-03-17T06:13:20.135Z,93.50
2023-03-17T06:15:52.719Z,91.70
2023-03-17T06:18:21.484Z,91.60
2023-03-17T06:20:49.870Z,94.40
2023-03-17T06:23:19.720Z,94.90
2023-03-17T06:25:48.518Z,96.30
2023-03-17T06:28:17.047Z,96.00
2023-03-17T06:30:45.471Z,95.70
2023-03-17T06:33:14.236Z,94.20
2023-03-17T06:35:42.675Z,94.20
2023-03-17T06:38:11.102Z,94.30
2023-03-17T06:40:40.812Z,94.50
2023-03-17T06:43:09.362Z,94.00
2023-03-17T06:45:37.757Z,93.80
2023-03-17T06:48:07.103Z,93.50
2023-03-17T06:50:35.481Z,93.70
2023-03-17T06:53:03.853Z,93.60
2023-03-17T06:55:33.897Z,93.40
2023-03-17T06:58:03.729Z,93.20
2023-03-17T07:00:33.077Z,93.10
2023-03-17T07:03:01.461Z,92.40
2023-03-17T07:05:30.098Z,92.60
2023-03-17T07:07:58.790Z,92.30
2023-03-17T07:10:27.150Z,92.90
2023-03-17T07:12:56.009Z,93.10
2023-03-17T07:15:25.963Z,93.30
2023-03-17T07:17:54.545Z,92.00
2023-03-17T07:20:26.042Z,92.80
2023-03-17T07:22:55.319Z,91.60
2023-03-17T07:25:23.897Z,91.20
2023-03-17T07:27:53.563Z,91.40
2023-03-17T07:30:22.059Z,91.60
2023-03-17T07:32:51.897Z,91.10
2023-03-17T07:35:20.922Z,91.20
2023-03-17T07:37:49.883Z,91.30
2023-03-17T07:40:19.601Z,91.30
2023-03-17T07:42:48.007Z,91.60
2023-03-17T07:45:16.575Z,91.40
2023-03-17T07:47:46.464Z,91.00
2023-03-17T07:50:16.601Z,91.30
2023-03-17T07:52:45.123Z,90.50
2023-03-17T07:55:13.912Z,90.40
2023-03-17T07:57:42.632Z,90.60
2023-03-17T08:00:13.830Z,90.70
2023-03-17T08:02:43.262Z,90.30
2023-03-17T08:05:15.400Z,90.10
2023-03-17T08:07:45.475Z,88.90
2023-03-17T08:10:16.731Z,88.60
2023-03-17T08:12:45.735Z,88.90
2023-03-17T08:15:14.528Z,87.60
2023-03-17T08:17:42.838Z,87.80
2023-03-17T08:20:13.043Z,87.90
2023-03-17T08:22:41.948Z,87.30
2023-03-17T08:25:12.794Z,87.00
2023-03-17T08:27:42.387Z,85.60
2023-03-17T08:30:12.854Z,83.50
2023-03-17T08:32:41.440Z,84.40
2023-03-17T08:35:12.993Z,84.90
2023-03-17T08:37:41.734Z,85.30
2023-03-17T08:40:13.937Z,84.80
2023-03-17T08:42:43.125Z,85.00
2023-03-17T08:45:12.808Z,84.70
2023-03-17T08:47:42.077Z,83.70
2023-03-17T08:50:15.888Z,82.00
2023-03-17T08:52:44.398Z,81.60
2023-03-17T08:55:15.414Z,82.60
2023-03-17T08:57:44.736Z,81.40
2023-03-17T09:00:15.432Z,81.10
2023-03-17T09:02:45.265Z,81.30
2023-03-17T09:05:15.050Z,81.30
2023-03-17T09:07:43.818Z,81.70
2023-03-17T09:10:16.874Z,81.60
2023-03-17T09:12:45.350Z,85.00
2023-03-17T09:15:14.189Z,81.90
2023-03-17T09:17:43.874Z,81.20
2023-03-17T09:20:13.866Z,80.20
2023-03-17T09:22:42.608Z,80.30
2023-03-17T09:25:11.185Z,79.00
2023-03-17T09:27:41.032Z,78.10
2023-03-17T09:30:11.282Z,77.50
2023-03-17T09:32:39.772Z,78.10
2023-03-17T09:35:08.548Z,79.10
2023-03-17T09:37:37.065Z,80.10
2023-03-17T09:40:09.157Z,79.00
2023-03-17T09:42:53.903Z,78.80
2023-03-17T09:45:33.370Z,78.30
2023-03-17T09:48:37.465Z,78.50
2023-03-17T09:51:09.055Z,78.10
2023-03-17T09:53:46.967Z,78.50
2023-03-17T09:56:17.491Z,78.60
2023-03-17T09:58:52.954Z,79.10
2023-03-17T10:01:23.426Z,77.50
2023-03-17T10:03:52.237Z,77.30
2023-03-17T10:06:33.774Z,77.20
2023-03-17T10:09:11.613Z,77.70
2023-03-17T10:11:43.198Z,77.80
2023-03-17T10:14:41.770Z,78.10
2023-03-17T10:17:17.744Z,78.10
2023-03-17T10:19:49.894Z,77.50
2023-03-17T10:22:23.792Z,78.20
2023-03-17T10:24:55.733Z,78.70
2023-03-17T10:27:24.993Z,78.40
2023-03-17T10:29:54.703Z,78.40
2023-03-17T10:32:23.170Z,78.20
2023-03-17T10:34:51.999Z,77.50
2023-03-17T10:37:23.880Z,77.50
2023-03-17T10:39:57.281Z,76.00
2023-03-17T10:42:27.236Z,76.50
2023-03-17T10:44:58.635Z,76.10
2023-03-17T10:47:31.730Z,76.20
2023-03-17T10:50:05.649Z,77.10
2023-03-17T10:52:39.671Z,76.10
2023-03-17T10:55:10.705Z,75.10
2023-03-17T10:57:40.646Z,76.90
2023-03-17T11:00:20.090Z,77.00
2023-03-17T11:02:52.678Z,76.30
2023-03-17T11:05:23.738Z,76.10
2023-03-17T11:07:59.171Z,76.60
2023-03-17T11:10:30.373Z,75.00
2023-03-17T11:13:02.019Z,73.00
2023-03-17T11:15:35.805Z,73.20
2023-03-17T11:18:07.929Z,72.40
2023-03-17T11:20:51.480Z,72.20
2023-03-17T11:23:46.487Z,72.60
2023-03-17T11:26:35.770Z,72.40
2023-03-17T11:29:22.910Z,71.20
2023-03-17T11:32:00.833Z,70.70
2023-03-17T11:34:53.271Z,71.70
2023-03-17T11:37:33.242Z,72.90
2023-03-17T11:40:14.900Z,70.60
2023-03-17T11:42:55.358Z,71.30
2023-03-17T11:45:30.733Z,71.80
2023-03-17T11:48:15.110Z,72.70
2023-03-17T11:50:55.166Z,72.70
2023-03-17T11:53:51.972Z,69.70
2023-03-17T11:56:22.361Z,69.70
2023-03-17T11:58:57.236Z,69.10
2023-03-17T12:01:30.227Z,70.40
2023-03-17T12:04:12.282Z,69.80
2023-03-17T12:06:46.582Z,70.00
2023-03-17T12:09:25.910Z,69.90
2023-03-17T12:11:57.601Z,71.10
2023-03-17T12:14:30.781Z,69.00
2023-03-17T12:17:09.343Z,68.90
2023-03-17T12:19:43.905Z,69.50
2023-03-17T12:22:21.406Z,70.70
2023-03-17T12:24:58.216Z,70.00
2023-03-17T12:27:31.185Z,69.40
2023-03-17T12:30:03.064Z,69.70
2023-03-17T12:32:38.710Z,68.70
2023-03-17T12:35:26.336Z,68.20
2023-03-17T12:37:56.962Z,68.50
2023-03-17T12:40:32.376Z,69.50
2023-03-17T12:43:19.460Z,68.70
2023-03-17T12:46:04.912Z,67.70
2023-03-17T12:48:52.278Z,67.90
2023-03-17T12:51:59.182Z,67.40
2023-03-17T12:54:30.325Z,67.80
2023-03-17T12:57:04.522Z,68.10
2023-03-17T12:59:34.178Z,68.20
2023-03-17T13:02:23.301Z,67.90
2023-03-17T13:04:58.167Z,67.40
2023-03-17T13:07:33.851Z,67.50
2023-03-17T13:10:21.328Z,67.50
2023-03-17T13:13:21.737Z,67.20
2023-03-17T13:15:54.951Z,66.70
2023-03-17T13:18:31.444Z,65.30
2023-03-17T13:21:14.161Z,65.10
2023-03-17T13:23:47.535Z,65.60
2023-03-17T13:26:20.181Z,65.20
2023-03-17T13:28:50.398Z,65.80
2023-03-17T13:31:36.886Z,65.00
2023-03-17T13:34:15.294Z,64.40
2023-03-17T13:37:02.470Z,64.60
2023-03-17T13:39:52.153Z,64.80
2023-03-17T13:42:36.777Z,64.50
2023-03-17T13:45:21.106Z,64.50
2023-03-17T13:47:52.630Z,63.70
2023-03-17T13:50:25.179Z,63.40
2023-03-17T13:52:57.358Z,63.20
2023-03-17T13:55:39.548Z,63.20
2023-03-17T13:58:24.799Z,62.70
2023-03-17T14:01:00.351Z,59.60
2023-03-17T14:03:36.537Z,59.20
2023-03-17T14:06:08.126Z,57.30
2023-03-17T14:08:38.071Z,56.60
2023-03-17T14:11:17.091Z,54.90
2023-03-17T14:13:53.887Z,53.10
2023-03-17T14:16:27.651Z,51.50
2023-03-17T14:19:01.463Z,49.70
2023-03-17T14:21:33.186Z,49.50
2023-03-17T14:24:04.358Z,50.00
2023-03-17T14:26:34.341Z,51.80
2023-03-17T14:29:04.955Z,54.40
2023-03-17T14:31:33.494Z,56.20
2023-03-17T14:34:03.313Z,57.30
2023-03-17T14:36:35.004Z,59.30
2023-03-17T14:39:03.640Z,61.20
2023-03-17T14:41:34.804Z,62.60
2023-03-17T14:44:03.446Z,64.00
2023-03-17T14:46:34.327Z,64.70
2023-03-17T14:49:05.197Z,64.60
2023-03-17T14:51:36.361Z,65.50
2023-03-17T14:54:11.493Z,66.20
2023-03-17T14:56:43.996Z,66.60
2023-03-17T14:59:23.431Z,67.10
2023-03-17T15:01:56.756Z,67.20
2023-03-17T15:04:26.904Z,67.90
2023-03-17T15:06:56.881Z,67.90
2023-03-17T15:09:27.999Z,68.60
2023-03-17T15:12:04.216Z,68.70
2023-03-17T15:14:35.164Z,68.40
2023-03-17T15:17:05.286Z,69.10
2023-03-17T15:19:40.715Z,68.80
2023-03-17T15:22:24.303Z,69.10
2023-03-17T15:25:04.698Z,68.50
2023-03-17T15:27:34.581Z,68.30
2023-03-17T15:30:03.337Z,67.60
2023-03-17T15:32:32.436Z,67.50
2023-03-17T15:35:00.904Z,67.50
2023-03-17T15:37:31.732Z,66.90
2023-03-17T15:40:01.722Z,67.10
2023-03-17T15:42:32.712Z,68.60
2023-03-17T15:45:03.806Z,70.20
2023-03-17T15:47:34.326Z,71.80
2023-03-17T15:50:11.960Z,74.70
2023-03-17T15:52:40.410Z,76.50
2023-03-17T15:55:17.011Z,77.80
2023-03-17T15:57:53.880Z,78.00
2023-03-17T16:00:29.906Z,78.70
2023-03-17T16:03:02.741Z,78.90
2023-03-17T16:05:33.811Z,79.20
2023-03-17T16:08:03.856Z,78.80
2023-03-17T16:10:34.078Z,80.00
2023-03-17T16:13:02.606Z,80.10
2023-03-17T16:15:35.249Z,81.20
2023-03-17T16:18:07.590Z,81.30
2023-03-17T16:23:13.609Z,82.20
2023-03-17T16:25:42.192Z,83.10
2023-03-17T16:28:16.816Z,83.20
2023-03-17T16:30:48.498Z,84.00
2023-03-17T16:33:18.974Z,84.60
2023-03-17T16:35:48.897Z,85.10
2023-03-17T16:38:22.091Z,87.10
2023-03-17T16:40:53.094Z,88.40
2023-03-17T16:43:25.628Z,88.40
2023-03-17T16:45:58.227Z,90.00
2023-03-17T16:48:27.356Z,90.80
2023-03-17T16:50:56.224Z,91.20
2023-03-17T16:53:26.248Z,91.50
2023-03-17T16:55:55.825Z,91.90
2023-03-17T16:58:27.420Z,92.30
2023-03-17T17:01:02.923Z,92.70
2023-03-17T17:03:32.320Z,92.80
2023-03-17T17:06:00.684Z,93.00
2023-03-17T17:08:30.056Z,93.20
2023-03-17T17:10:58.571Z,93.30
2023-03-17T17:13:26.908Z,93.60
2023-03-17T17:15:57.246Z,93.70
2023-03-17T17:18:26.497Z,93.80
2023-03-17T17:20:56.840Z,93.70
2023-03-17T17:23:27.592Z,93.90
2023-03-17T17:25:56.464Z,94.00
2023-03-17T17:28:27.229Z,94.40
2023-03-17T17:30:58.615Z,95.20
2023-03-17T17:33:27.195Z,96.10
2023-03-17T17:35:55.867Z,96.50
2023-03-17T17:38:26.855Z,96.80
2023-03-17T17:40:56.143Z,97.70
2023-03-17T17:43:25.566Z,97.90
2023-03-17T17:45:54.437Z,97.70
2023-03-17T17:48:26.576Z,98.00
2023-03-17T17:50:56.189Z,98.70
2023-03-17T17:53:24.742Z,99.90
2023-03-17T17:55:53.363Z,99.90
2023-03-17T17:58:23.833Z,99.90
2023-03-17T18:00:55.500Z,99.90
2023-03-17T18:03:25.735Z,99.90
2023-03-17T18:05:54.704Z,99.90
2023-03-17T18:08:23.837Z,99.90
2023-03-17T18:10:52.500Z,99.90
2023-03-17T18:13:21.017Z,99.90
2023-03-17T18:15:49.382Z,99.90
2023-03-17T18:18:17.824Z,99.90
2023-03-17T18:20:47.595Z,99.90
2023-03-17T18:23:16.592Z,99.90
2023-03-17T18:25:44.910Z,99.90
2023-03-17T18:28:13.555Z,99.90
2023-03-17T18:30:42.199Z,99.80
2023-03-17T18:33:17.605Z,99.70
2023-03-17T18:35:50.216Z,99.80
2023-03-17T18:38:18.739Z,99.90
2023-03-17T18:40:47.200Z,99.90
2023-03-17T18:43:18.190Z,99.90
2023-03-17T18:45:46.607Z,99.90
2023-03-17T18:48:15.063Z,99.90
2023-03-17T18:50:43.921Z,99.90
2023-03-17T18:53:13.753Z,99.90
2023-03-17T18:55:42.845Z,99.90
2023-03-17T18:58:11.511Z,99.90
2023-03-17T19:00:40.289Z,99.90
2023-03-17T19:03:08.763Z,99.90
2023-03-17T19:05:39.622Z,99.90
2023-03-17T19:08:08.026Z,99.90
2023-03-17T19:10:37.775Z,99.90
2023-03-17T19:13:06.630Z,99.90
2023-03-17T19:15:35.922Z,99.90
2023-03-17T19:18:04.309Z,99.90
2023-03-17T19:20:34.553Z,99.90
2023-03-17T19:23:04.591Z,99.90
2023-03-17T19:25:33.039Z,99.90
2023-03-17T19:28:03.475Z,99.90
2023-03-17T19:30:32.409Z,99.90
2023-03-17T19:33:00.891Z,99.90
2023-03-17T19:35:29.264Z,99.90
2023-03-17T19:37:57.638Z,99.90
2023-03-17T19:40:26.143Z,99.90
2023-03-17T19:42:54.584Z,99.90
2023-03-17T19:45:24.542Z,99.90
2023-03-17T19:47:52.981Z,99.90
2023-03-17T19:50:21.909Z,99.90
2023-03-17T19:52:53.115Z,99.90
2023-03-17T19:55:21.690Z,99.90
2023-03-17T19:57:50.094Z,99.90
2023-03-17T20:00:19.540Z,99.90
2023-03-17T20:02:49.428Z,99.90
2023-03-17T20:05:18.083Z,99.90
2023-03-17T20:07:46.592Z,99.90
2023-03-17T20:10:15.172Z,99.90
2023-03-17T20:12:45.826Z,99.90
2023-03-17T20:15:16.454Z,99.90
2023-03-17T20:17:45.084Z,99.90
2023-03-17T20:20:15.811Z,99.90
2023-03-17T20:22:45.034Z,99.90
2023-03-17T20:25:13.665Z,99.90
2023-03-17T20:27:41.959Z,99.90
2023-03-17T20:30:12.434Z,99.90
2023-03-17T20:32:41.079Z,99.90
2023-03-17T20:35:10.344Z,99.90
2023-03-17T20:37:40.142Z,99.90
2023-03-17T20:40:10.784Z,99.90
2023-03-17T20:42:39.303Z,99.90
2023-03-17T20:45:09.027Z,99.90
2023-03-17T20:47:37.652Z,99.90
2023-03-17T20:50:08.669Z,99.90
2023-03-17T20:52:37.328Z,99.90
2023-03-17T20:55:08.586Z,99.90
2023-03-17T20:57:38.161Z,99.90
2023-03-17T21:00:08.256Z,99.90
2023-03-17T21:02:36.761Z,99.90
2023-03-17T21:05:05.571Z,99.90
2023-03-17T21:07:34.186Z,99.90
2023-03-17T21:10:02.979Z,99.90
2023-03-17T21:12:32.940Z,99.90
2023-03-17T21:15:02.107Z,99.90
2023-03-17T21:17:30.895Z,99.90
2023-03-17T21:19:59.346Z,99.90
2023-03-17T21:22:27.804Z,99.90
2023-03-17T21:24:56.175Z,99.90
2023-03-17T21:27:25.427Z,99.90
2023-03-17T21:29:55.190Z,99.90
2023-03-17T21:32:24.420Z,99.90
2023-03-17T21:34:54.433Z,99.90
2023-03-17T21:37:22.907Z,99.90
2023-03-17T21:39:51.264Z,99.90
2023-03-17T21:42:19.857Z,99.90
2023-03-17T21:44:49.430Z,99.90
2023-03-17T21:47:20.294Z,99.90
2023-03-17T21:49:48.739Z,99.90
2023-03-17T21:52:17.082Z,99.90
2023-03-17T21:54:45.778Z,99.90
2023-03-17T21:57:14.120Z,99.90
2023-03-17T21:59:42.449Z,99.90
2023-03-17T22:02:12.645Z,99.90
2023-03-17T22:04:42.386Z,99.90
2023-03-17T22:07:11.615Z,99.90
2023-03-17T22:09:40.018Z,99.90
2023-03-17T22:12:08.541Z,99.90
2023-03-17T22:14:36.988Z,99.90
2023-03-17T22:17:06.405Z,99.90
2023-03-17T22:19:34.875Z,99.90
2023-03-17T22:22:04.903Z,99.90
2023-03-17T22:24:36.250Z,99.90
2023-03-17T22:27:04.837Z,99.90
2023-03-17T22:29:33.187Z,99.90
2023-03-17T22:32:02.537Z,99.90
2023-03-17T22:34:31.008Z,99.90
2023-03-17T22:36:59.378Z,99.90
2023-03-17T22:39:29.136Z,99.90
2023-03-17T22:41:57.435Z,99.90
2023-03-17T22:44:25.880Z,99.90
2023-03-17T22:46:54.341Z,99.90
2023-03-17T22:49:23.799Z,99.90
2023-03-17T22:51:52.319Z,99.90
2023-03-17T22:54:22.018Z,99.90
2023-03-17T22:56:51.872Z,99.90
2023-03-17T22:59:20.233Z,99.90
2023-03-17T23:01:48.718Z,99.90
2023-03-17T23:04:17.447Z,99.90
2023-03-17T23:06:46.556Z,99.90
2023-03-17T23:09:14.934Z,99.90
2023-03-17T23:11:43.533Z,99.90
2023-03-17T23:14:13.543Z,99.90
2023-03-17T23:16:41.956Z,99.90
2023-03-17T23:19:10.312Z,99.90
2023-03-17T23:21:40.126Z,99.90
2023-03-17T23:24:09.375Z,99.90
2023-03-17T23:26:38.436Z,99.90
2023-03-17T23:29:08.515Z,99.90
2023-03-17T23:31:39.804Z,99.90
2023-03-17T23:34:09.836Z,99.90
2023-03-17T23:36:40.296Z,99.90
2023-03-17T23:39:09.905Z,99.90
2023-03-17T23:41:38.262Z,99.90
2023-03-17T23:44:06.771Z,99.90
2023-03-17T23:46:35.169Z,99.90
2023-03-17T23:49:07.270Z,99.90
2023-03-17T23:51:36.167Z,99.90
2023-03-17T23:54:05.086Z,99.90
2023-03-17T23:56:33.568Z,99.90
2023-03-17T23:59:03.202Z,99.90
